Aérodrome :
LOGIN :

S'inscrire | Disclaimer

   EN    FR    IT 

 










Légende :    VFR   VFR Marginal   IFR   IFR Intensif   IFR Très Intensif
Visi : 
Plafond : 
>= 8 km
>= 3000ft
5 à 8 km
1000 à 3000 ft
1500m à 5 km
500 à 1000 ft
800 à 1500m
200 à 500 ft
< 800m
< 200 ft
Symboles :   Orages  Brouillard  Fortes neiges  Fortes précipitations  Vent > 20 kt
SIGMETs :   Divers  Orages  Givrage  Turbulence  Onde Orograph.  Cendres Volcan.







- Altitude de l'aérodrome : 1989 ft
- Code IATA : KLV


LKKV - Karlovy Vary

DERNIER METAR :
  • 280000Z 36003KT CAVOK 02/01 Q1011

METARs EXPIRÉS :
  • 272300Z 00000KT CAVOK 02/01 Q1012
  • 272200Z VRB01KT CAVOK 02/01 Q1012

TAF TAF LKKV
Valide du 28 à 00h jusqu'au 29 à 06h UTC


272300Z 2800/2906 VRB02KT 9999 SCT023
TEMPO 2800/2818 03006KT 5000 -RA BR BKN006
PROB30
TEMPO 2800/2808 1300 RA BR OVC003
Pas de NOTAMs connus pour ce terrain.



MET'MAP, la Météo Aéronautique d'un coup d'oeil ! - Copyright ORBIFLY Décembre 2007 - Disclaimer

ORBIFLY MET'MAP TEAM :

Programmation & Développement : Alexandra Zaïnal
Conception & Développement : Baudouin d'Aumeries
Co-Programmation & Développement : Marc-Olivier Méhu
Soutien technique & logistique : Manuel Goepfert

Contact : metmap@orbifly.com




SOURCES & CREDITS :

   NOAA